Ticket #971: server.log

File server.log, 53.1 KB (added by tincantech, 20 months ago)
Line 
1Thu Feb  7 15:15:37 2019 us=359257 WARNING: Using --management on a TCP port WITHOUT passwords is STRONGLY discouraged and considered insecure
2Thu Feb  7 15:15:37 2019 us=359377 WARNING: file 'tuns_63110u/PKI/v3.ec.hell.srv.lucifer.key' is group or others accessible
3Thu Feb  7 15:15:37 2019 us=359400 WARNING: file 'tuns_63110u/PKI/ta-hell.key' is group or others accessible
4Thu Feb  7 15:15:37 2019 us=359426 Current Parameter Settings:
5Thu Feb  7 15:15:37 2019 us=359436   config = '/etc/openvpn/tuns_63110u_s3.conf'
6Thu Feb  7 15:15:37 2019 us=359444   mode = 1
7Thu Feb  7 15:15:37 2019 us=359451   persist_config = DISABLED
8Thu Feb  7 15:15:37 2019 us=359459   persist_mode = 1
9Thu Feb  7 15:15:37 2019 us=359467   show_ciphers = DISABLED
10Thu Feb  7 15:15:37 2019 us=359474   show_digests = DISABLED
11Thu Feb  7 15:15:37 2019 us=359481   show_engines = DISABLED
12Thu Feb  7 15:15:37 2019 us=359489   genkey = DISABLED
13Thu Feb  7 15:15:37 2019 us=359496   key_pass_file = '[UNDEF]'
14Thu Feb  7 15:15:37 2019 us=359504   show_tls_ciphers = DISABLED
15Thu Feb  7 15:15:37 2019 us=359511   connect_retry_max = 0
16Thu Feb  7 15:15:37 2019 us=359519 Connection profiles [0]:
17Thu Feb  7 15:15:37 2019 us=359527   proto = udp
18Thu Feb  7 15:15:37 2019 us=359534   local = '10.2.201.101'
19Thu Feb  7 15:15:37 2019 us=359541   local_port = '63110'
20Thu Feb  7 15:15:37 2019 us=359549   remote = '[UNDEF]'
21Thu Feb  7 15:15:37 2019 us=359556   remote_port = '63110'
22Thu Feb  7 15:15:37 2019 us=359564   remote_float = DISABLED
23Thu Feb  7 15:15:37 2019 us=359571   bind_defined = DISABLED
24Thu Feb  7 15:15:37 2019 us=359578   bind_local = ENABLED
25Thu Feb  7 15:15:37 2019 us=359586   bind_ipv6_only = DISABLED
26Thu Feb  7 15:15:37 2019 us=359593   connect_retry_seconds = 5
27Thu Feb  7 15:15:37 2019 us=359600   connect_timeout = 120
28Thu Feb  7 15:15:37 2019 us=359608   socks_proxy_server = '[UNDEF]'
29Thu Feb  7 15:15:37 2019 us=359615   socks_proxy_port = '[UNDEF]'
30Thu Feb  7 15:15:37 2019 us=359622   tun_mtu = 1500
31Thu Feb  7 15:15:37 2019 us=359629   tun_mtu_defined = ENABLED
32Thu Feb  7 15:15:37 2019 us=359637   link_mtu = 1500
33Thu Feb  7 15:15:37 2019 us=359644   link_mtu_defined = DISABLED
34Thu Feb  7 15:15:37 2019 us=359652   tun_mtu_extra = 0
35Thu Feb  7 15:15:37 2019 us=359659   tun_mtu_extra_defined = DISABLED
36Thu Feb  7 15:15:37 2019 us=359666   mtu_discover_type = -1
37Thu Feb  7 15:15:37 2019 us=359674   fragment = 0
38Thu Feb  7 15:15:37 2019 us=359681   mssfix = 1450
39Thu Feb  7 15:15:37 2019 us=359689   explicit_exit_notification = 0
40Thu Feb  7 15:15:37 2019 us=359696   tls_auth_file = 'tuns_63110u/PKI/ta-hell.key'
41Thu Feb  7 15:15:37 2019 us=359703   key_direction = 0
42Thu Feb  7 15:15:37 2019 us=359711   tls_crypt_file = '[UNDEF]'
43Thu Feb  7 15:15:37 2019 us=359718   tls_crypt_v2_file = '[UNDEF]'
44Thu Feb  7 15:15:37 2019 us=359725 Connection profiles END
45Thu Feb  7 15:15:37 2019 us=359733   remote_random = DISABLED
46Thu Feb  7 15:15:37 2019 us=359740   ipchange = '[UNDEF]'
47Thu Feb  7 15:15:37 2019 us=359747   dev = 'tunsu63110'
48Thu Feb  7 15:15:37 2019 us=359754   dev_type = '[UNDEF]'
49Thu Feb  7 15:15:37 2019 us=359762   dev_node = '[UNDEF]'
50Thu Feb  7 15:15:37 2019 us=359769   lladdr = '[UNDEF]'
51Thu Feb  7 15:15:37 2019 us=359776   topology = 1
52Thu Feb  7 15:15:37 2019 us=359784   ifconfig_local = '10.63.110.1'
53Thu Feb  7 15:15:37 2019 us=359791   ifconfig_remote_netmask = '10.63.110.2'
54Thu Feb  7 15:15:37 2019 us=359798   ifconfig_noexec = DISABLED
55Thu Feb  7 15:15:37 2019 us=359805   ifconfig_nowarn = DISABLED
56Thu Feb  7 15:15:37 2019 us=359813   ifconfig_ipv6_local = '[UNDEF]'
57Thu Feb  7 15:15:37 2019 us=359820   ifconfig_ipv6_netbits = 0
58Thu Feb  7 15:15:37 2019 us=359827   ifconfig_ipv6_remote = '[UNDEF]'
59Thu Feb  7 15:15:37 2019 us=359835   shaper = 0
60Thu Feb  7 15:15:37 2019 us=359842   mtu_test = 0
61Thu Feb  7 15:15:37 2019 us=359849   mlock = DISABLED
62Thu Feb  7 15:15:37 2019 us=359856   keepalive_ping = 10
63Thu Feb  7 15:15:37 2019 us=359864   keepalive_timeout = 60
64Thu Feb  7 15:15:37 2019 us=359871   inactivity_timeout = 0
65Thu Feb  7 15:15:37 2019 us=359878   ping_send_timeout = 10
66Thu Feb  7 15:15:37 2019 us=359891   ping_rec_timeout = 120
67Thu Feb  7 15:15:37 2019 us=359899   ping_rec_timeout_action = 2
68Thu Feb  7 15:15:37 2019 us=359906   ping_timer_remote = ENABLED
69Thu Feb  7 15:15:37 2019 us=359914   remap_sigusr1 = 0
70Thu Feb  7 15:15:37 2019 us=359921   persist_tun = DISABLED
71Thu Feb  7 15:15:37 2019 us=359928   persist_local_ip = DISABLED
72Thu Feb  7 15:15:37 2019 us=359936   persist_remote_ip = DISABLED
73Thu Feb  7 15:15:37 2019 us=359943   persist_key = DISABLED
74Thu Feb  7 15:15:37 2019 us=359950   passtos = DISABLED
75Thu Feb  7 15:15:37 2019 us=359958   resolve_retry_seconds = 1000000000
76Thu Feb  7 15:15:37 2019 us=359965   resolve_in_advance = DISABLED
77Thu Feb  7 15:15:37 2019 us=359973   username = '[UNDEF]'
78Thu Feb  7 15:15:37 2019 us=359980   groupname = '[UNDEF]'
79Thu Feb  7 15:15:37 2019 us=359987   chroot_dir = '[UNDEF]'
80Thu Feb  7 15:15:37 2019 us=359994   cd_dir = '/etc/openvpn'
81Thu Feb  7 15:15:37 2019 us=360002   writepid = '[UNDEF]'
82Thu Feb  7 15:15:37 2019 us=360009   up_script = '[UNDEF]'
83Thu Feb  7 15:15:37 2019 us=360016   down_script = '[UNDEF]'
84Thu Feb  7 15:15:37 2019 us=360024   down_pre = DISABLED
85Thu Feb  7 15:15:37 2019 us=360031   up_restart = DISABLED
86Thu Feb  7 15:15:37 2019 us=360038   up_delay = DISABLED
87Thu Feb  7 15:15:37 2019 us=360045   daemon = DISABLED
88Thu Feb  7 15:15:37 2019 us=360053   inetd = 0
89Thu Feb  7 15:15:37 2019 us=360060   log = ENABLED
90Thu Feb  7 15:15:37 2019 us=360067   suppress_timestamps = DISABLED
91Thu Feb  7 15:15:37 2019 us=360075   machine_readable_output = DISABLED
92Thu Feb  7 15:15:37 2019 us=360082   nice = 0
93Thu Feb  7 15:15:37 2019 us=360089   verbosity = 4
94Thu Feb  7 15:15:37 2019 us=360099   mute = 0
95Thu Feb  7 15:15:37 2019 us=360107   gremlin = 0
96Thu Feb  7 15:15:37 2019 us=360114   status_file = 'tuns_63110u/temp/stat.log'
97Thu Feb  7 15:15:37 2019 us=360122   status_file_version = 1
98Thu Feb  7 15:15:37 2019 us=360129   status_file_update_freq = 30
99Thu Feb  7 15:15:37 2019 us=360136   occ = ENABLED
100Thu Feb  7 15:15:37 2019 us=360144   rcvbuf = 0
101Thu Feb  7 15:15:37 2019 us=360152   sndbuf = 0
102Thu Feb  7 15:15:37 2019 us=360159   mark = 0
103Thu Feb  7 15:15:37 2019 us=360166   sockflags = 0
104Thu Feb  7 15:15:37 2019 us=360174   fast_io = DISABLED
105Thu Feb  7 15:15:37 2019 us=360181   comp.alg = 1
106Thu Feb  7 15:15:37 2019 us=360189   comp.flags = 0
107Thu Feb  7 15:15:37 2019 us=360196   route_script = '[UNDEF]'
108Thu Feb  7 15:15:37 2019 us=360203   route_default_gateway = '[UNDEF]'
109Thu Feb  7 15:15:37 2019 us=360211   route_default_metric = 0
110Thu Feb  7 15:15:37 2019 us=360218   route_noexec = DISABLED
111Thu Feb  7 15:15:37 2019 us=360226   route_delay = 0
112Thu Feb  7 15:15:37 2019 us=360233   route_delay_window = 30
113Thu Feb  7 15:15:37 2019 us=360240   route_delay_defined = DISABLED
114Thu Feb  7 15:15:37 2019 us=360248   route_nopull = DISABLED
115Thu Feb  7 15:15:37 2019 us=360255   route_gateway_via_dhcp = DISABLED
116Thu Feb  7 15:15:37 2019 us=360263   allow_pull_fqdn = DISABLED
117Thu Feb  7 15:15:37 2019 us=360271   route 10.63.110.0/255.255.255.0/default (not set)/default (not set)
118Thu Feb  7 15:15:37 2019 us=360279   management_addr = 'tunnel'
119Thu Feb  7 15:15:37 2019 us=360286   management_port = '63110'
120Thu Feb  7 15:15:37 2019 us=360294   management_user_pass = '[UNDEF]'
121Thu Feb  7 15:15:37 2019 us=360301   management_log_history_cache = 250
122Thu Feb  7 15:15:37 2019 us=360309   management_echo_buffer_size = 100
123Thu Feb  7 15:15:37 2019 us=360316   management_write_peer_info_file = '[UNDEF]'
124Thu Feb  7 15:15:37 2019 us=360323   management_client_user = '[UNDEF]'
125Thu Feb  7 15:15:37 2019 us=360331   management_client_group = '[UNDEF]'
126Thu Feb  7 15:15:37 2019 us=360339   management_flags = 0
127Thu Feb  7 15:15:37 2019 us=360346   shared_secret_file = '[UNDEF]'
128Thu Feb  7 15:15:37 2019 us=360354   key_direction = 0
129Thu Feb  7 15:15:37 2019 us=360361   ciphername = 'AES-256-CBC'
130Thu Feb  7 15:15:37 2019 us=360369   ncp_enabled = ENABLED
131Thu Feb  7 15:15:37 2019 us=360377   ncp_ciphers = 'AES-256-GCM:AES-128-GCM'
132Thu Feb  7 15:15:37 2019 us=360384   authname = 'RSA-SHA512'
133Thu Feb  7 15:15:37 2019 us=360396   prng_hash = 'SHA1'
134Thu Feb  7 15:15:37 2019 us=360404   prng_nonce_secret_len = 16
135Thu Feb  7 15:15:37 2019 us=360411   keysize = 0
136Thu Feb  7 15:15:37 2019 us=360419   engine = DISABLED
137Thu Feb  7 15:15:37 2019 us=360426   replay = ENABLED
138Thu Feb  7 15:15:37 2019 us=360434   mute_replay_warnings = DISABLED
139Thu Feb  7 15:15:37 2019 us=360442   replay_window = 64
140Thu Feb  7 15:15:37 2019 us=360449   replay_time = 15
141Thu Feb  7 15:15:37 2019 us=360457   packet_id_file = '[UNDEF]'
142Thu Feb  7 15:15:37 2019 us=360464   test_crypto = DISABLED
143Thu Feb  7 15:15:37 2019 us=360471   tls_server = ENABLED
144Thu Feb  7 15:15:37 2019 us=360479   tls_client = DISABLED
145Thu Feb  7 15:15:37 2019 us=360487   key_method = 2
146Thu Feb  7 15:15:37 2019 us=360502   ca_file = 'tuns_63110u/PKI/ca.crt'
147Thu Feb  7 15:15:37 2019 us=360516   ca_path = '[UNDEF]'
148Thu Feb  7 15:15:37 2019 us=360528   dh_file = 'tuns_63110u/PKI/dh-20160615-161526-163823.pem'
149Thu Feb  7 15:15:37 2019 us=360540   cert_file = 'tuns_63110u/PKI/v3.ec.hell.srv.lucifer.crt'
150Thu Feb  7 15:15:37 2019 us=360553   extra_certs_file = '[UNDEF]'
151Thu Feb  7 15:15:37 2019 us=360564   priv_key_file = 'tuns_63110u/PKI/v3.ec.hell.srv.lucifer.key'
152Thu Feb  7 15:15:37 2019 us=360577   pkcs12_file = '[UNDEF]'
153Thu Feb  7 15:15:37 2019 us=360590   cipher_list = '[UNDEF]'
154Thu Feb  7 15:15:37 2019 us=360603   cipher_list_tls13 = '[UNDEF]'
155Thu Feb  7 15:15:37 2019 us=360615   tls_cert_profile = '[UNDEF]'
156Thu Feb  7 15:15:37 2019 us=360627   tls_verify = '[UNDEF]'
157Thu Feb  7 15:15:37 2019 us=360641   tls_export_cert = '[UNDEF]'
158Thu Feb  7 15:15:37 2019 us=360655   verify_x509_type = 3
159Thu Feb  7 15:15:37 2019 us=360668   verify_x509_name = 'v3.ec.hell.cli.'
160Thu Feb  7 15:15:37 2019 us=360681   crl_file = '[UNDEF]'
161Thu Feb  7 15:15:37 2019 us=360693   ns_cert_type = 0
162Thu Feb  7 15:15:37 2019 us=360707   remote_cert_ku[i] = 0
163Thu Feb  7 15:15:37 2019 us=360720   remote_cert_ku[i] = 0
164Thu Feb  7 15:15:37 2019 us=360733   remote_cert_ku[i] = 0
165Thu Feb  7 15:15:37 2019 us=360745   remote_cert_ku[i] = 0
166Thu Feb  7 15:15:37 2019 us=360758   remote_cert_ku[i] = 0
167Thu Feb  7 15:15:37 2019 us=360770   remote_cert_ku[i] = 0
168Thu Feb  7 15:15:37 2019 us=360783   remote_cert_ku[i] = 0
169Thu Feb  7 15:15:37 2019 us=360795   remote_cert_ku[i] = 0
170Thu Feb  7 15:15:37 2019 us=360803   remote_cert_ku[i] = 0
171Thu Feb  7 15:15:37 2019 us=360811   remote_cert_ku[i] = 0
172Thu Feb  7 15:15:37 2019 us=360818   remote_cert_ku[i] = 0
173Thu Feb  7 15:15:37 2019 us=360826   remote_cert_ku[i] = 0
174Thu Feb  7 15:15:37 2019 us=360833   remote_cert_ku[i] = 0
175Thu Feb  7 15:15:37 2019 us=360841   remote_cert_ku[i] = 0
176Thu Feb  7 15:15:37 2019 us=360849   remote_cert_ku[i] = 0
177Thu Feb  7 15:15:37 2019 us=360856   remote_cert_ku[i] = 0
178Thu Feb  7 15:15:37 2019 us=360864   remote_cert_eku = '[UNDEF]'
179Thu Feb  7 15:15:37 2019 us=360872   ssl_flags = 0
180Thu Feb  7 15:15:37 2019 us=360879   tls_timeout = 2
181Thu Feb  7 15:15:37 2019 us=360887   renegotiate_bytes = -1
182Thu Feb  7 15:15:37 2019 us=360894   renegotiate_packets = 0
183Thu Feb  7 15:15:37 2019 us=360902   renegotiate_seconds = 3600
184Thu Feb  7 15:15:37 2019 us=360909   handshake_window = 60
185Thu Feb  7 15:15:37 2019 us=360916   transition_window = 3600
186Thu Feb  7 15:15:37 2019 us=360924   single_session = DISABLED
187Thu Feb  7 15:15:37 2019 us=360931   push_peer_info = DISABLED
188Thu Feb  7 15:15:37 2019 us=360939   tls_exit = DISABLED
189Thu Feb  7 15:15:37 2019 us=360946   tls_crypt_v2_genkey_type = '[UNDEF]'
190Thu Feb  7 15:15:37 2019 us=360954   tls_crypt_v2_genkey_file = '[UNDEF]'
191Thu Feb  7 15:15:37 2019 us=360961   tls_crypt_v2_metadata = '[UNDEF]'
192Thu Feb  7 15:15:37 2019 us=360969   server_network = 10.63.110.0
193Thu Feb  7 15:15:37 2019 us=360978   server_netmask = 255.255.255.0
194Thu Feb  7 15:15:37 2019 us=360986   server_network_ipv6 = ::
195Thu Feb  7 15:15:37 2019 us=360994   server_netbits_ipv6 = 0
196Thu Feb  7 15:15:37 2019 us=361002   server_bridge_ip = 0.0.0.0
197Thu Feb  7 15:15:37 2019 us=361010   server_bridge_netmask = 0.0.0.0
198Thu Feb  7 15:15:37 2019 us=361022   server_bridge_pool_start = 0.0.0.0
199Thu Feb  7 15:15:37 2019 us=361031   server_bridge_pool_end = 0.0.0.0
200Thu Feb  7 15:15:37 2019 us=361038   push_entry = 'explicit-exit-notify 3'
201Thu Feb  7 15:15:37 2019 us=361046   push_entry = 'comp-lzo no'
202Thu Feb  7 15:15:37 2019 us=361053   push_entry = 'route 10.63.110.0 255.255.255.0'
203Thu Feb  7 15:15:37 2019 us=361061   push_entry = 'topology net30'
204Thu Feb  7 15:15:37 2019 us=361068   push_entry = 'ping 10'
205Thu Feb  7 15:15:37 2019 us=361076   push_entry = 'ping-restart 60'
206Thu Feb  7 15:15:37 2019 us=361083   ifconfig_pool_defined = ENABLED
207Thu Feb  7 15:15:37 2019 us=361092   ifconfig_pool_start = 10.63.110.4
208Thu Feb  7 15:15:37 2019 us=361100   ifconfig_pool_end = 10.63.110.251
209Thu Feb  7 15:15:37 2019 us=361108   ifconfig_pool_netmask = 0.0.0.0
210Thu Feb  7 15:15:37 2019 us=361115   ifconfig_pool_persist_filename = '[UNDEF]'
211Thu Feb  7 15:15:37 2019 us=361123   ifconfig_pool_persist_refresh_freq = 600
212Thu Feb  7 15:15:37 2019 us=361130   ifconfig_ipv6_pool_defined = DISABLED
213Thu Feb  7 15:15:37 2019 us=361138   ifconfig_ipv6_pool_base = ::
214Thu Feb  7 15:15:37 2019 us=361145   ifconfig_ipv6_pool_netbits = 0
215Thu Feb  7 15:15:37 2019 us=361153   n_bcast_buf = 256
216Thu Feb  7 15:15:37 2019 us=361160   tcp_queue_limit = 64
217Thu Feb  7 15:15:37 2019 us=361168   real_hash_size = 256
218Thu Feb  7 15:15:37 2019 us=361175   virtual_hash_size = 256
219Thu Feb  7 15:15:37 2019 us=361183   client_connect_script = '[UNDEF]'
220Thu Feb  7 15:15:37 2019 us=361190   learn_address_script = '[UNDEF]'
221Thu Feb  7 15:15:37 2019 us=361198   client_disconnect_script = '[UNDEF]'
222Thu Feb  7 15:15:37 2019 us=361205   client_config_dir = 'tuns_63110u/CCD_net30'
223Thu Feb  7 15:15:37 2019 us=361212   ccd_exclusive = ENABLED
224Thu Feb  7 15:15:37 2019 us=361220   tmp_dir = 'tuns_63110u/temp'
225Thu Feb  7 15:15:37 2019 us=361227   push_ifconfig_defined = DISABLED
226Thu Feb  7 15:15:37 2019 us=361235   push_ifconfig_local = 0.0.0.0
227Thu Feb  7 15:15:37 2019 us=361243   push_ifconfig_remote_netmask = 0.0.0.0
228Thu Feb  7 15:15:37 2019 us=361251   push_ifconfig_ipv6_defined = DISABLED
229Thu Feb  7 15:15:37 2019 us=361258   push_ifconfig_ipv6_local = ::/0
230Thu Feb  7 15:15:37 2019 us=361266   push_ifconfig_ipv6_remote = ::
231Thu Feb  7 15:15:37 2019 us=361274   enable_c2c = ENABLED
232Thu Feb  7 15:15:37 2019 us=361281   duplicate_cn = DISABLED
233Thu Feb  7 15:15:37 2019 us=361289   cf_max = 0
234Thu Feb  7 15:15:37 2019 us=361296   cf_per = 0
235Thu Feb  7 15:15:37 2019 us=361304   max_clients = 1024
236Thu Feb  7 15:15:37 2019 us=361312   max_routes_per_client = 256
237Thu Feb  7 15:15:37 2019 us=361319   auth_user_pass_verify_script = '[UNDEF]'
238Thu Feb  7 15:15:37 2019 us=361327   auth_user_pass_verify_script_via_file = DISABLED
239Thu Feb  7 15:15:37 2019 us=361334   auth_token_generate = DISABLED
240Thu Feb  7 15:15:37 2019 us=361342   auth_token_lifetime = 0
241Thu Feb  7 15:15:37 2019 us=361349   port_share_host = '[UNDEF]'
242Thu Feb  7 15:15:37 2019 us=361356   port_share_port = '[UNDEF]'
243Thu Feb  7 15:15:37 2019 us=361364   client = DISABLED
244Thu Feb  7 15:15:37 2019 us=361371   pull = DISABLED
245Thu Feb  7 15:15:37 2019 us=361379   auth_user_pass_file = '[UNDEF]'
246Thu Feb  7 15:15:37 2019 us=361387 OpenVPN 2.5_git [git:master/ce1c1beef1eb9ea7+] x86_64-pc-linux-gnu [SSL (OpenSSL)] [LZO] [LZ4] [EPOLL] [MH/PKTINFO] [AEAD] built on Feb  6 2019
247Thu Feb  7 15:15:37 2019 us=361400 library versions: OpenSSL 1.1.0g  2 Nov 2017, LZO 2.08
248Thu Feb  7 15:15:37 2019 us=361819 Diffie-Hellman initialized with 4096 bit key
249Thu Feb  7 15:15:37 2019 us=362334 Outgoing Control Channel Authentication: Using 512 bit message hash 'SHA512' for HMAC authentication
250Thu Feb  7 15:15:37 2019 us=362352 Incoming Control Channel Authentication: Using 512 bit message hash 'SHA512' for HMAC authentication
251Thu Feb  7 15:15:37 2019 us=362366 TLS-Auth MTU parms [ L:1622 D:1140 EF:110 EB:0 ET:0 EL:3 ]
252Thu Feb  7 15:15:37 2019 us=362504 ROUTE_GATEWAY 10.2.201.1/255.255.255.0 IFACE=wlp9s0 HWADDR=c0:18:85:79:69:a7
253Thu Feb  7 15:15:37 2019 us=362828 TUN/TAP device tunsu63110 opened
254Thu Feb  7 15:15:37 2019 us=362951 TUN/TAP TX queue length set to 100
255Thu Feb  7 15:15:37 2019 us=362980 do_ifconfig, ipv4=1, ipv6=0
256Thu Feb  7 15:15:37 2019 us=363003 /sbin/ifconfig tunsu63110 10.63.110.1 pointopoint 10.63.110.2 mtu 1500
257Thu Feb  7 15:15:37 2019 us=372147 /sbin/route add -net 10.63.110.0 netmask 255.255.255.0 gw 10.63.110.2
258Thu Feb  7 15:15:37 2019 us=373616 Data Channel MTU parms [ L:1622 D:1450 EF:122 EB:406 ET:0 EL:3 ]
259Thu Feb  7 15:15:37 2019 us=373660 Could not determine IPv4/IPv6 protocol. Using AF_INET
260Thu Feb  7 15:15:37 2019 us=373691 Socket Buffers: R=[212992->212992] S=[212992->212992]
261Thu Feb  7 15:15:37 2019 us=373720 UDPv4 link local (bound): [AF_INET]10.2.201.101:63110
262Thu Feb  7 15:15:37 2019 us=373736 UDPv4 link remote: [AF_UNSPEC]
263Thu Feb  7 15:15:37 2019 us=373755 MULTI: multi_init called, r=256 v=256
264Thu Feb  7 15:15:37 2019 us=373793 IFCONFIG POOL: base=10.63.110.4 size=62, ipv6=0
265Thu Feb  7 15:15:37 2019 us=374183 Initialization Sequence Completed
266Thu Feb  7 15:15:37 2019 us=374246 MANAGEMENT: TCP Socket listening on [AF_INET]10.63.110.1:63110
267Thu Feb  7 15:15:58 2019 us=510220 MULTI: multi_create_instance called
268
269<Snip client connecting>
270
271Thu Feb  7 15:16:01 2019 us=995468 Float requested for peer 0 to 92.10.43.122:2552
272Thu Feb  7 15:16:01 2019 us=995636 Authenticate/Decrypt packet error: packet HMAC authentication failed
273Thu Feb  7 15:16:13 2019 us=662532 event_wait : Interrupted system call (code=4)
274Thu Feb  7 15:16:13 2019 us=663275 TCP/UDP: Closing socket
275Thu Feb  7 15:16:13 2019 us=663507 /sbin/route del -net 10.63.110.0 netmask 255.255.255.0
276Thu Feb  7 15:16:13 2019 us=665999 Closing TUN/TAP interface
277Thu Feb  7 15:16:13 2019 us=666158 /sbin/ifconfig tunsu63110 0.0.0.0
278Thu Feb  7 15:16:13 2019 us=691491 SIGHUP[hard,] received, process restarting
279Thu Feb  7 15:16:13 2019 us=691822 WARNING: Using --management on a TCP port WITHOUT passwords is STRONGLY discouraged and considered insecure
280Thu Feb  7 15:16:13 2019 us=691867 WARNING: file 'tuns_63110u/PKI/v3.ec.hell.srv.lucifer.key' is group or others accessible
281Thu Feb  7 15:16:13 2019 us=691886 WARNING: file 'tuns_63110u/PKI/ta-hell.key' is group or others accessible
282Thu Feb  7 15:16:13 2019 us=691909 Current Parameter Settings:
283Thu Feb  7 15:16:13 2019 us=691923   config = '/etc/openvpn/tuns_63110u_s3.conf'
284Thu Feb  7 15:16:13 2019 us=691936   mode = 1
285Thu Feb  7 15:16:13 2019 us=691949   persist_config = DISABLED
286Thu Feb  7 15:16:13 2019 us=691963   persist_mode = 1
287Thu Feb  7 15:16:13 2019 us=691977   show_ciphers = DISABLED
288Thu Feb  7 15:16:13 2019 us=691989   show_digests = DISABLED
289Thu Feb  7 15:16:13 2019 us=692000   show_engines = DISABLED
290Thu Feb  7 15:16:13 2019 us=692013   genkey = DISABLED
291Thu Feb  7 15:16:13 2019 us=692027   key_pass_file = '[UNDEF]'
292Thu Feb  7 15:16:13 2019 us=692040   show_tls_ciphers = DISABLED
293Thu Feb  7 15:16:13 2019 us=692054   connect_retry_max = 0
294Thu Feb  7 15:16:13 2019 us=692068 Connection profiles [0]:
295Thu Feb  7 15:16:13 2019 us=692081   proto = udp
296Thu Feb  7 15:16:13 2019 us=692095   local = '10.2.201.101'
297Thu Feb  7 15:16:13 2019 us=692109   local_port = '63110'
298Thu Feb  7 15:16:13 2019 us=692124   remote = '[UNDEF]'
299Thu Feb  7 15:16:13 2019 us=692138   remote_port = '63110'
300Thu Feb  7 15:16:13 2019 us=692152   remote_float = DISABLED
301Thu Feb  7 15:16:13 2019 us=692166   bind_defined = DISABLED
302Thu Feb  7 15:16:13 2019 us=692180   bind_local = ENABLED
303Thu Feb  7 15:16:13 2019 us=692193   bind_ipv6_only = DISABLED
304Thu Feb  7 15:16:13 2019 us=692210   connect_retry_seconds = 5
305Thu Feb  7 15:16:13 2019 us=692225   connect_timeout = 120
306Thu Feb  7 15:16:13 2019 us=692239   socks_proxy_server = '[UNDEF]'
307Thu Feb  7 15:16:13 2019 us=692253   socks_proxy_port = '[UNDEF]'
308Thu Feb  7 15:16:13 2019 us=692268   tun_mtu = 1500
309Thu Feb  7 15:16:13 2019 us=692282   tun_mtu_defined = ENABLED
310Thu Feb  7 15:16:13 2019 us=692297   link_mtu = 1500
311Thu Feb  7 15:16:13 2019 us=692311   link_mtu_defined = DISABLED
312Thu Feb  7 15:16:13 2019 us=692325   tun_mtu_extra = 0
313Thu Feb  7 15:16:13 2019 us=692340   tun_mtu_extra_defined = DISABLED
314Thu Feb  7 15:16:13 2019 us=692354   mtu_discover_type = -1
315Thu Feb  7 15:16:13 2019 us=692369   fragment = 0
316Thu Feb  7 15:16:13 2019 us=692400   mssfix = 1450
317Thu Feb  7 15:16:13 2019 us=692414   explicit_exit_notification = 0
318Thu Feb  7 15:16:13 2019 us=692428   tls_auth_file = 'tuns_63110u/PKI/ta-hell.key'
319Thu Feb  7 15:16:13 2019 us=692442   key_direction = 0
320Thu Feb  7 15:16:13 2019 us=692455   tls_crypt_file = '[UNDEF]'
321Thu Feb  7 15:16:13 2019 us=692468   tls_crypt_v2_file = '[UNDEF]'
322Thu Feb  7 15:16:13 2019 us=692482 Connection profiles END
323Thu Feb  7 15:16:13 2019 us=692495   remote_random = DISABLED
324Thu Feb  7 15:16:13 2019 us=692508   ipchange = '[UNDEF]'
325Thu Feb  7 15:16:13 2019 us=692522   dev = 'tunsu63110'
326Thu Feb  7 15:16:13 2019 us=692535   dev_type = '[UNDEF]'
327Thu Feb  7 15:16:13 2019 us=692547   dev_node = '[UNDEF]'
328Thu Feb  7 15:16:13 2019 us=692560   lladdr = '[UNDEF]'
329Thu Feb  7 15:16:13 2019 us=692574   topology = 1
330Thu Feb  7 15:16:13 2019 us=692588   ifconfig_local = '10.63.110.1'
331Thu Feb  7 15:16:13 2019 us=692601   ifconfig_remote_netmask = '10.63.110.2'
332Thu Feb  7 15:16:13 2019 us=692614   ifconfig_noexec = DISABLED
333Thu Feb  7 15:16:13 2019 us=692625   ifconfig_nowarn = DISABLED
334Thu Feb  7 15:16:13 2019 us=692638   ifconfig_ipv6_local = '[UNDEF]'
335Thu Feb  7 15:16:13 2019 us=692650   ifconfig_ipv6_netbits = 0
336Thu Feb  7 15:16:13 2019 us=692663   ifconfig_ipv6_remote = '[UNDEF]'
337Thu Feb  7 15:16:13 2019 us=692675   shaper = 0
338Thu Feb  7 15:16:13 2019 us=692687   mtu_test = 0
339Thu Feb  7 15:16:13 2019 us=692698   mlock = DISABLED
340Thu Feb  7 15:16:13 2019 us=692709   keepalive_ping = 10
341Thu Feb  7 15:16:13 2019 us=692724   keepalive_timeout = 60
342Thu Feb  7 15:16:13 2019 us=692735   inactivity_timeout = 0
343Thu Feb  7 15:16:13 2019 us=692746   ping_send_timeout = 10
344Thu Feb  7 15:16:13 2019 us=692757   ping_rec_timeout = 120
345Thu Feb  7 15:16:13 2019 us=692769   ping_rec_timeout_action = 2
346Thu Feb  7 15:16:13 2019 us=692780   ping_timer_remote = ENABLED
347Thu Feb  7 15:16:13 2019 us=692793   remap_sigusr1 = 0
348Thu Feb  7 15:16:13 2019 us=692805   persist_tun = DISABLED
349Thu Feb  7 15:16:13 2019 us=692817   persist_local_ip = DISABLED
350Thu Feb  7 15:16:13 2019 us=692836   persist_remote_ip = DISABLED
351Thu Feb  7 15:16:13 2019 us=692848   persist_key = DISABLED
352Thu Feb  7 15:16:13 2019 us=692860   passtos = DISABLED
353Thu Feb  7 15:16:13 2019 us=692873   resolve_retry_seconds = 1000000000
354Thu Feb  7 15:16:13 2019 us=692885   resolve_in_advance = DISABLED
355Thu Feb  7 15:16:13 2019 us=692899   username = '[UNDEF]'
356Thu Feb  7 15:16:13 2019 us=692911   groupname = '[UNDEF]'
357Thu Feb  7 15:16:13 2019 us=692924   chroot_dir = '[UNDEF]'
358Thu Feb  7 15:16:13 2019 us=692937   cd_dir = '/etc/openvpn'
359Thu Feb  7 15:16:13 2019 us=692949   writepid = '[UNDEF]'
360Thu Feb  7 15:16:13 2019 us=692961   up_script = '[UNDEF]'
361Thu Feb  7 15:16:13 2019 us=692974   down_script = '[UNDEF]'
362Thu Feb  7 15:16:13 2019 us=692988   down_pre = DISABLED
363Thu Feb  7 15:16:13 2019 us=693003   up_restart = DISABLED
364Thu Feb  7 15:16:13 2019 us=693018   up_delay = DISABLED
365Thu Feb  7 15:16:13 2019 us=693033   daemon = DISABLED
366Thu Feb  7 15:16:13 2019 us=693047   inetd = 0
367Thu Feb  7 15:16:13 2019 us=693061   log = ENABLED
368Thu Feb  7 15:16:13 2019 us=693074   suppress_timestamps = DISABLED
369Thu Feb  7 15:16:13 2019 us=693087   machine_readable_output = DISABLED
370Thu Feb  7 15:16:13 2019 us=693101   nice = 0
371Thu Feb  7 15:16:13 2019 us=693115   verbosity = 4
372Thu Feb  7 15:16:13 2019 us=693129   mute = 0
373Thu Feb  7 15:16:13 2019 us=693144   gremlin = 0
374Thu Feb  7 15:16:13 2019 us=693157   status_file = 'tuns_63110u/temp/stat.log'
375Thu Feb  7 15:16:13 2019 us=693171   status_file_version = 1
376Thu Feb  7 15:16:13 2019 us=693184   status_file_update_freq = 30
377Thu Feb  7 15:16:13 2019 us=693197   occ = ENABLED
378Thu Feb  7 15:16:13 2019 us=693211   rcvbuf = 0
379Thu Feb  7 15:16:13 2019 us=693225   sndbuf = 0
380Thu Feb  7 15:16:13 2019 us=693238   mark = 0
381Thu Feb  7 15:16:13 2019 us=693252   sockflags = 0
382Thu Feb  7 15:16:13 2019 us=693266   fast_io = DISABLED
383Thu Feb  7 15:16:13 2019 us=693280   comp.alg = 1
384Thu Feb  7 15:16:13 2019 us=693297   comp.flags = 0
385Thu Feb  7 15:16:13 2019 us=693311   route_script = '[UNDEF]'
386Thu Feb  7 15:16:13 2019 us=693338   route_default_gateway = '[UNDEF]'
387Thu Feb  7 15:16:13 2019 us=693352   route_default_metric = 0
388Thu Feb  7 15:16:13 2019 us=693366   route_noexec = DISABLED
389Thu Feb  7 15:16:13 2019 us=693384   route_delay = 0
390Thu Feb  7 15:16:13 2019 us=693399   route_delay_window = 30
391Thu Feb  7 15:16:13 2019 us=693412   route_delay_defined = DISABLED
392Thu Feb  7 15:16:13 2019 us=693423   route_nopull = DISABLED
393Thu Feb  7 15:16:13 2019 us=693432   route_gateway_via_dhcp = DISABLED
394Thu Feb  7 15:16:13 2019 us=693440   allow_pull_fqdn = DISABLED
395Thu Feb  7 15:16:13 2019 us=693451   route 10.63.110.0/255.255.255.0/default (not set)/default (not set)
396Thu Feb  7 15:16:13 2019 us=693460   management_addr = 'tunnel'
397Thu Feb  7 15:16:13 2019 us=693468   management_port = '63110'
398Thu Feb  7 15:16:13 2019 us=693476   management_user_pass = '[UNDEF]'
399Thu Feb  7 15:16:13 2019 us=693485   management_log_history_cache = 250
400Thu Feb  7 15:16:13 2019 us=693494   management_echo_buffer_size = 100
401Thu Feb  7 15:16:13 2019 us=693503   management_write_peer_info_file = '[UNDEF]'
402Thu Feb  7 15:16:13 2019 us=693512   management_client_user = '[UNDEF]'
403Thu Feb  7 15:16:13 2019 us=693520   management_client_group = '[UNDEF]'
404Thu Feb  7 15:16:13 2019 us=693529   management_flags = 0
405Thu Feb  7 15:16:13 2019 us=693537   shared_secret_file = '[UNDEF]'
406Thu Feb  7 15:16:13 2019 us=693546   key_direction = 0
407Thu Feb  7 15:16:13 2019 us=693555   ciphername = 'AES-256-CBC'
408Thu Feb  7 15:16:13 2019 us=693564   ncp_enabled = ENABLED
409Thu Feb  7 15:16:13 2019 us=693572   ncp_ciphers = 'AES-256-GCM:AES-128-GCM'
410Thu Feb  7 15:16:13 2019 us=693584   authname = 'RSA-SHA512'
411Thu Feb  7 15:16:13 2019 us=693603   prng_hash = 'SHA1'
412Thu Feb  7 15:16:13 2019 us=693618   prng_nonce_secret_len = 16
413Thu Feb  7 15:16:13 2019 us=693632   keysize = 0
414Thu Feb  7 15:16:13 2019 us=693645   engine = DISABLED
415Thu Feb  7 15:16:13 2019 us=693658   replay = ENABLED
416Thu Feb  7 15:16:13 2019 us=693671   mute_replay_warnings = DISABLED
417Thu Feb  7 15:16:13 2019 us=693684   replay_window = 64
418Thu Feb  7 15:16:13 2019 us=693697   replay_time = 15
419Thu Feb  7 15:16:13 2019 us=693711   packet_id_file = '[UNDEF]'
420Thu Feb  7 15:16:13 2019 us=693725   test_crypto = DISABLED
421Thu Feb  7 15:16:13 2019 us=693739   tls_server = ENABLED
422Thu Feb  7 15:16:13 2019 us=693751   tls_client = DISABLED
423Thu Feb  7 15:16:13 2019 us=693760   key_method = 2
424Thu Feb  7 15:16:13 2019 us=693768   ca_file = 'tuns_63110u/PKI/ca.crt'
425Thu Feb  7 15:16:13 2019 us=693777   ca_path = '[UNDEF]'
426Thu Feb  7 15:16:13 2019 us=693788   dh_file = 'tuns_63110u/PKI/dh-20160615-161526-163823.pem'
427Thu Feb  7 15:16:13 2019 us=693797   cert_file = 'tuns_63110u/PKI/v3.ec.hell.srv.lucifer.crt'
428Thu Feb  7 15:16:13 2019 us=693806   extra_certs_file = '[UNDEF]'
429Thu Feb  7 15:16:13 2019 us=693814   priv_key_file = 'tuns_63110u/PKI/v3.ec.hell.srv.lucifer.key'
430Thu Feb  7 15:16:13 2019 us=693823   pkcs12_file = '[UNDEF]'
431Thu Feb  7 15:16:13 2019 us=693831   cipher_list = '[UNDEF]'
432Thu Feb  7 15:16:13 2019 us=693840   cipher_list_tls13 = '[UNDEF]'
433Thu Feb  7 15:16:13 2019 us=693849   tls_cert_profile = '[UNDEF]'
434Thu Feb  7 15:16:13 2019 us=693857   tls_verify = '[UNDEF]'
435Thu Feb  7 15:16:13 2019 us=693866   tls_export_cert = '[UNDEF]'
436Thu Feb  7 15:16:13 2019 us=693878   verify_x509_type = 3
437Thu Feb  7 15:16:13 2019 us=693886   verify_x509_name = 'v3.ec.hell.cli.'
438Thu Feb  7 15:16:13 2019 us=693895   crl_file = '[UNDEF]'
439Thu Feb  7 15:16:13 2019 us=693903   ns_cert_type = 0
440Thu Feb  7 15:16:13 2019 us=693912   remote_cert_ku[i] = 0
441Thu Feb  7 15:16:13 2019 us=693921   remote_cert_ku[i] = 0
442Thu Feb  7 15:16:13 2019 us=693934   remote_cert_ku[i] = 0
443Thu Feb  7 15:16:13 2019 us=693947   remote_cert_ku[i] = 0
444Thu Feb  7 15:16:13 2019 us=693961   remote_cert_ku[i] = 0
445Thu Feb  7 15:16:13 2019 us=693973   remote_cert_ku[i] = 0
446Thu Feb  7 15:16:13 2019 us=693985   remote_cert_ku[i] = 0
447Thu Feb  7 15:16:13 2019 us=693998   remote_cert_ku[i] = 0
448Thu Feb  7 15:16:13 2019 us=694012   remote_cert_ku[i] = 0
449Thu Feb  7 15:16:13 2019 us=694039   remote_cert_ku[i] = 0
450Thu Feb  7 15:16:13 2019 us=694055   remote_cert_ku[i] = 0
451Thu Feb  7 15:16:13 2019 us=694065   remote_cert_ku[i] = 0
452Thu Feb  7 15:16:13 2019 us=694076   remote_cert_ku[i] = 0
453Thu Feb  7 15:16:13 2019 us=694084   remote_cert_ku[i] = 0
454Thu Feb  7 15:16:13 2019 us=694093   remote_cert_ku[i] = 0
455Thu Feb  7 15:16:13 2019 us=694101   remote_cert_ku[i] = 0
456Thu Feb  7 15:16:13 2019 us=694111   remote_cert_eku = '[UNDEF]'
457Thu Feb  7 15:16:13 2019 us=694119   ssl_flags = 0
458Thu Feb  7 15:16:13 2019 us=694127   tls_timeout = 2
459Thu Feb  7 15:16:13 2019 us=694135   renegotiate_bytes = -1
460Thu Feb  7 15:16:13 2019 us=694144   renegotiate_packets = 0
461Thu Feb  7 15:16:13 2019 us=694152   renegotiate_seconds = 3600
462Thu Feb  7 15:16:13 2019 us=694160   handshake_window = 60
463Thu Feb  7 15:16:13 2019 us=694168   transition_window = 3600
464Thu Feb  7 15:16:13 2019 us=694176   single_session = DISABLED
465Thu Feb  7 15:16:13 2019 us=694184   push_peer_info = DISABLED
466Thu Feb  7 15:16:13 2019 us=694192   tls_exit = DISABLED
467Thu Feb  7 15:16:13 2019 us=694200   tls_crypt_v2_genkey_type = '[UNDEF]'
468Thu Feb  7 15:16:13 2019 us=694208   tls_crypt_v2_genkey_file = '[UNDEF]'
469Thu Feb  7 15:16:13 2019 us=694217   tls_crypt_v2_metadata = '[UNDEF]'
470Thu Feb  7 15:16:13 2019 us=694228   server_network = 10.63.110.0
471Thu Feb  7 15:16:13 2019 us=694237   server_netmask = 255.255.255.0
472Thu Feb  7 15:16:13 2019 us=694246   server_network_ipv6 = ::
473Thu Feb  7 15:16:13 2019 us=694255   server_netbits_ipv6 = 0
474Thu Feb  7 15:16:13 2019 us=694264   server_bridge_ip = 0.0.0.0
475Thu Feb  7 15:16:13 2019 us=694273   server_bridge_netmask = 0.0.0.0
476Thu Feb  7 15:16:13 2019 us=694281   server_bridge_pool_start = 0.0.0.0
477Thu Feb  7 15:16:13 2019 us=694290   server_bridge_pool_end = 0.0.0.0
478Thu Feb  7 15:16:13 2019 us=694299   push_entry = 'explicit-exit-notify 3'
479Thu Feb  7 15:16:13 2019 us=694308   push_entry = 'comp-lzo no'
480Thu Feb  7 15:16:13 2019 us=694317   push_entry = 'route 10.63.110.0 255.255.255.0'
481Thu Feb  7 15:16:13 2019 us=694325   push_entry = 'topology net30'
482Thu Feb  7 15:16:13 2019 us=694334   push_entry = 'ping 10'
483Thu Feb  7 15:16:13 2019 us=694342   push_entry = 'ping-restart 60'
484Thu Feb  7 15:16:13 2019 us=694350   ifconfig_pool_defined = ENABLED
485Thu Feb  7 15:16:13 2019 us=694360   ifconfig_pool_start = 10.63.110.4
486Thu Feb  7 15:16:13 2019 us=694369   ifconfig_pool_end = 10.63.110.251
487Thu Feb  7 15:16:13 2019 us=694378   ifconfig_pool_netmask = 0.0.0.0
488Thu Feb  7 15:16:13 2019 us=694386   ifconfig_pool_persist_filename = '[UNDEF]'
489Thu Feb  7 15:16:13 2019 us=694394   ifconfig_pool_persist_refresh_freq = 600
490Thu Feb  7 15:16:13 2019 us=694402   ifconfig_ipv6_pool_defined = DISABLED
491Thu Feb  7 15:16:13 2019 us=694412   ifconfig_ipv6_pool_base = ::
492Thu Feb  7 15:16:13 2019 us=694420   ifconfig_ipv6_pool_netbits = 0
493Thu Feb  7 15:16:13 2019 us=694428   n_bcast_buf = 256
494Thu Feb  7 15:16:13 2019 us=694436   tcp_queue_limit = 64
495Thu Feb  7 15:16:13 2019 us=694445   real_hash_size = 256
496Thu Feb  7 15:16:13 2019 us=694453   virtual_hash_size = 256
497Thu Feb  7 15:16:13 2019 us=694461   client_connect_script = '[UNDEF]'
498Thu Feb  7 15:16:13 2019 us=694470   learn_address_script = '[UNDEF]'
499Thu Feb  7 15:16:13 2019 us=694478   client_disconnect_script = '[UNDEF]'
500Thu Feb  7 15:16:13 2019 us=694486   client_config_dir = 'tuns_63110u/CCD_net30'
501Thu Feb  7 15:16:13 2019 us=694494   ccd_exclusive = ENABLED
502Thu Feb  7 15:16:13 2019 us=694502   tmp_dir = 'tuns_63110u/temp'
503Thu Feb  7 15:16:13 2019 us=694510   push_ifconfig_defined = DISABLED
504Thu Feb  7 15:16:13 2019 us=694519   push_ifconfig_local = 0.0.0.0
505Thu Feb  7 15:16:13 2019 us=694528   push_ifconfig_remote_netmask = 0.0.0.0
506Thu Feb  7 15:16:13 2019 us=694536   push_ifconfig_ipv6_defined = DISABLED
507Thu Feb  7 15:16:13 2019 us=694545   push_ifconfig_ipv6_local = ::/0
508Thu Feb  7 15:16:13 2019 us=694554   push_ifconfig_ipv6_remote = ::
509Thu Feb  7 15:16:13 2019 us=694562   enable_c2c = ENABLED
510Thu Feb  7 15:16:13 2019 us=694571   duplicate_cn = DISABLED
511Thu Feb  7 15:16:13 2019 us=694586   cf_max = 0
512Thu Feb  7 15:16:13 2019 us=694595   cf_per = 0
513Thu Feb  7 15:16:13 2019 us=694605   max_clients = 1024
514Thu Feb  7 15:16:13 2019 us=694613   max_routes_per_client = 256
515Thu Feb  7 15:16:13 2019 us=694621   auth_user_pass_verify_script = '[UNDEF]'
516Thu Feb  7 15:16:13 2019 us=694629   auth_user_pass_verify_script_via_file = DISABLED
517Thu Feb  7 15:16:13 2019 us=694638   auth_token_generate = DISABLED
518Thu Feb  7 15:16:13 2019 us=694646   auth_token_lifetime = 0
519Thu Feb  7 15:16:13 2019 us=694654   port_share_host = '[UNDEF]'
520Thu Feb  7 15:16:13 2019 us=694662   port_share_port = '[UNDEF]'
521Thu Feb  7 15:16:13 2019 us=694670   client = DISABLED
522Thu Feb  7 15:16:13 2019 us=694678   pull = DISABLED
523Thu Feb  7 15:16:13 2019 us=694686   auth_user_pass_file = '[UNDEF]'
524Thu Feb  7 15:16:13 2019 us=694696 OpenVPN 2.5_git [git:master/ce1c1beef1eb9ea7+] x86_64-pc-linux-gnu [SSL (OpenSSL)] [LZO] [LZ4] [EPOLL] [MH/PKTINFO] [AEAD] built on Feb  6 2019
525Thu Feb  7 15:16:13 2019 us=694706 library versions: OpenSSL 1.1.0g  2 Nov 2017, LZO 2.08
526Thu Feb  7 15:16:13 2019 us=694750 Restart pause, 5 second(s)
527Thu Feb  7 15:16:18 2019 us=695928 Diffie-Hellman initialized with 4096 bit key
528Thu Feb  7 15:16:18 2019 us=697759 Outgoing Control Channel Authentication: Using 512 bit message hash 'SHA512' for HMAC authentication
529Thu Feb  7 15:16:18 2019 us=697846 Incoming Control Channel Authentication: Using 512 bit message hash 'SHA512' for HMAC authentication
530Thu Feb  7 15:16:18 2019 us=697929 TLS-Auth MTU parms [ L:1622 D:1140 EF:110 EB:0 ET:0 EL:3 ]
531Thu Feb  7 15:16:18 2019 us=698437 ROUTE_GATEWAY 10.2.201.1/255.255.255.0 IFACE=wlp9s0 HWADDR=c0:18:85:79:69:a7
532Thu Feb  7 15:16:18 2019 us=700846 TUN/TAP device tunsu63110 opened
533Thu Feb  7 15:16:18 2019 us=701124 TUN/TAP TX queue length set to 100
534Thu Feb  7 15:16:18 2019 us=701223 do_ifconfig, ipv4=1, ipv6=0
535Thu Feb  7 15:16:18 2019 us=701315 /sbin/ifconfig tunsu63110 10.63.110.1 pointopoint 10.63.110.2 mtu 1500
536Thu Feb  7 15:16:18 2019 us=710065 /sbin/route add -net 10.63.110.0 netmask 255.255.255.0 gw 10.63.110.2
537Thu Feb  7 15:16:18 2019 us=711398 Data Channel MTU parms [ L:1622 D:1450 EF:122 EB:406 ET:0 EL:3 ]
538Thu Feb  7 15:16:18 2019 us=711447 Could not determine IPv4/IPv6 protocol. Using AF_INET
539Thu Feb  7 15:16:18 2019 us=711480 Socket Buffers: R=[212992->212992] S=[212992->212992]
540Thu Feb  7 15:16:18 2019 us=711511 UDPv4 link local (bound): [AF_INET]10.2.201.101:63110
541Thu Feb  7 15:16:18 2019 us=711530 UDPv4 link remote: [AF_UNSPEC]
542Thu Feb  7 15:16:18 2019 us=711553 MULTI: multi_init called, r=256 v=256
543Thu Feb  7 15:16:18 2019 us=711598 IFCONFIG POOL: base=10.63.110.4 size=62, ipv6=0
544Thu Feb  7 15:16:18 2019 us=711637 Initialization Sequence Completed
545Thu Feb  7 15:16:18 2019 us=711685 MANAGEMENT: TCP Socket listening on [AF_INET]10.63.110.1:0
546Thu Feb  7 15:16:20 2019 us=27073 MULTI: multi_create_instance called
547
548<Snip normal activity>
549
550Thu Feb  7 15:44:42 2019 us=804391 event_wait : Interrupted system call (code=4)
551Thu Feb  7 15:44:42 2019 us=805768 TCP/UDP: Closing socket
552Thu Feb  7 15:44:42 2019 us=806027 /sbin/route del -net 10.63.110.0 netmask 255.255.255.0
553Thu Feb  7 15:44:42 2019 us=808728 Closing TUN/TAP interface
554Thu Feb  7 15:44:42 2019 us=808890 /sbin/ifconfig tunsu63110 0.0.0.0
555Thu Feb  7 15:44:42 2019 us=839532 SIGHUP[hard,] received, process restarting
556Thu Feb  7 15:44:42 2019 us=839929 WARNING: Using --management on a TCP port WITHOUT passwords is STRONGLY discouraged and considered insecure
557Thu Feb  7 15:44:42 2019 us=839977 WARNING: file 'tuns_63110u/PKI/v3.ec.hell.srv.lucifer.key' is group or others accessible
558Thu Feb  7 15:44:42 2019 us=840002 WARNING: file 'tuns_63110u/PKI/ta-hell.key' is group or others accessible
559Thu Feb  7 15:44:42 2019 us=840032 Current Parameter Settings:
560Thu Feb  7 15:44:42 2019 us=840051   config = '/etc/openvpn/tuns_63110u_s3.conf'
561Thu Feb  7 15:44:42 2019 us=840069   mode = 1
562Thu Feb  7 15:44:42 2019 us=840089   persist_config = DISABLED
563Thu Feb  7 15:44:42 2019 us=840107   persist_mode = 1
564Thu Feb  7 15:44:42 2019 us=840124   show_ciphers = DISABLED
565Thu Feb  7 15:44:42 2019 us=840140   show_digests = DISABLED
566Thu Feb  7 15:44:42 2019 us=840156   show_engines = DISABLED
567Thu Feb  7 15:44:42 2019 us=840172   genkey = DISABLED
568Thu Feb  7 15:44:42 2019 us=840189   key_pass_file = '[UNDEF]'
569Thu Feb  7 15:44:42 2019 us=840204   show_tls_ciphers = DISABLED
570Thu Feb  7 15:44:42 2019 us=840220   connect_retry_max = 0
571Thu Feb  7 15:44:42 2019 us=840235 Connection profiles [0]:
572Thu Feb  7 15:44:42 2019 us=840252   proto = udp
573Thu Feb  7 15:44:42 2019 us=840268   local = '10.2.201.101'
574Thu Feb  7 15:44:42 2019 us=840284   local_port = '63110'
575Thu Feb  7 15:44:42 2019 us=840300   remote = '[UNDEF]'
576Thu Feb  7 15:44:42 2019 us=840316   remote_port = '63110'
577Thu Feb  7 15:44:42 2019 us=840331   remote_float = DISABLED
578Thu Feb  7 15:44:42 2019 us=840364   bind_defined = DISABLED
579Thu Feb  7 15:44:42 2019 us=840381   bind_local = ENABLED
580Thu Feb  7 15:44:42 2019 us=840398   bind_ipv6_only = DISABLED
581Thu Feb  7 15:44:42 2019 us=840414   connect_retry_seconds = 5
582Thu Feb  7 15:44:42 2019 us=840428   connect_timeout = 120
583Thu Feb  7 15:44:42 2019 us=840439   socks_proxy_server = '[UNDEF]'
584Thu Feb  7 15:44:42 2019 us=840451   socks_proxy_port = '[UNDEF]'
585Thu Feb  7 15:44:42 2019 us=840463   tun_mtu = 1500
586Thu Feb  7 15:44:42 2019 us=840475   tun_mtu_defined = ENABLED
587Thu Feb  7 15:44:42 2019 us=840488   link_mtu = 1500
588Thu Feb  7 15:44:42 2019 us=840501   link_mtu_defined = DISABLED
589Thu Feb  7 15:44:42 2019 us=840515   tun_mtu_extra = 0
590Thu Feb  7 15:44:42 2019 us=840529   tun_mtu_extra_defined = DISABLED
591Thu Feb  7 15:44:42 2019 us=840545   mtu_discover_type = -1
592Thu Feb  7 15:44:42 2019 us=840560   fragment = 0
593Thu Feb  7 15:44:42 2019 us=840575   mssfix = 1450
594Thu Feb  7 15:44:42 2019 us=840587   explicit_exit_notification = 0
595Thu Feb  7 15:44:42 2019 us=840599   tls_auth_file = 'tuns_63110u/PKI/ta-hell.key'
596Thu Feb  7 15:44:42 2019 us=840611   key_direction = 0
597Thu Feb  7 15:44:42 2019 us=840623   tls_crypt_file = '[UNDEF]'
598Thu Feb  7 15:44:42 2019 us=840636   tls_crypt_v2_file = '[UNDEF]'
599Thu Feb  7 15:44:42 2019 us=840651 Connection profiles END
600Thu Feb  7 15:44:42 2019 us=840664   remote_random = DISABLED
601Thu Feb  7 15:44:42 2019 us=840675   ipchange = '[UNDEF]'
602Thu Feb  7 15:44:42 2019 us=840722   dev = 'tunsu63110'
603Thu Feb  7 15:44:42 2019 us=840739   dev_type = '[UNDEF]'
604Thu Feb  7 15:44:42 2019 us=840756   dev_node = '[UNDEF]'
605Thu Feb  7 15:44:42 2019 us=840771   lladdr = '[UNDEF]'
606Thu Feb  7 15:44:42 2019 us=840796   topology = 1
607Thu Feb  7 15:44:42 2019 us=840809   ifconfig_local = '10.63.110.1'
608Thu Feb  7 15:44:42 2019 us=840827   ifconfig_remote_netmask = '10.63.110.2'
609Thu Feb  7 15:44:42 2019 us=840847   ifconfig_noexec = DISABLED
610Thu Feb  7 15:44:42 2019 us=840860   ifconfig_nowarn = DISABLED
611Thu Feb  7 15:44:42 2019 us=840873   ifconfig_ipv6_local = '[UNDEF]'
612Thu Feb  7 15:44:42 2019 us=840887   ifconfig_ipv6_netbits = 0
613Thu Feb  7 15:44:42 2019 us=840902   ifconfig_ipv6_remote = '[UNDEF]'
614Thu Feb  7 15:44:42 2019 us=840920   shaper = 0
615Thu Feb  7 15:44:42 2019 us=840937   mtu_test = 0
616Thu Feb  7 15:44:42 2019 us=840950   mlock = DISABLED
617Thu Feb  7 15:44:42 2019 us=840965   keepalive_ping = 10
618Thu Feb  7 15:44:42 2019 us=840982   keepalive_timeout = 60
619Thu Feb  7 15:44:42 2019 us=840994   inactivity_timeout = 0
620Thu Feb  7 15:44:42 2019 us=841013   ping_send_timeout = 10
621Thu Feb  7 15:44:42 2019 us=841030   ping_rec_timeout = 120
622Thu Feb  7 15:44:42 2019 us=841046   ping_rec_timeout_action = 2
623Thu Feb  7 15:44:42 2019 us=841059   ping_timer_remote = ENABLED
624Thu Feb  7 15:44:42 2019 us=841071   remap_sigusr1 = 0
625Thu Feb  7 15:44:42 2019 us=841090   persist_tun = DISABLED
626Thu Feb  7 15:44:42 2019 us=841115   persist_local_ip = DISABLED
627Thu Feb  7 15:44:42 2019 us=841135   persist_remote_ip = DISABLED
628Thu Feb  7 15:44:42 2019 us=841161   persist_key = DISABLED
629Thu Feb  7 15:44:42 2019 us=841179   passtos = DISABLED
630Thu Feb  7 15:44:42 2019 us=841196   resolve_retry_seconds = 1000000000
631Thu Feb  7 15:44:42 2019 us=841207   resolve_in_advance = DISABLED
632Thu Feb  7 15:44:42 2019 us=841225   username = '[UNDEF]'
633Thu Feb  7 15:44:42 2019 us=841237   groupname = '[UNDEF]'
634Thu Feb  7 15:44:42 2019 us=841251   chroot_dir = '[UNDEF]'
635Thu Feb  7 15:44:42 2019 us=841268   cd_dir = '/etc/openvpn'
636Thu Feb  7 15:44:42 2019 us=841285   writepid = '[UNDEF]'
637Thu Feb  7 15:44:42 2019 us=841296   up_script = '[UNDEF]'
638Thu Feb  7 15:44:42 2019 us=841312   down_script = '[UNDEF]'
639Thu Feb  7 15:44:42 2019 us=841325   down_pre = DISABLED
640Thu Feb  7 15:44:42 2019 us=841338   up_restart = DISABLED
641Thu Feb  7 15:44:42 2019 us=841350   up_delay = DISABLED
642Thu Feb  7 15:44:42 2019 us=841361   daemon = DISABLED
643Thu Feb  7 15:44:42 2019 us=841373   inetd = 0
644Thu Feb  7 15:44:42 2019 us=841381   log = ENABLED
645Thu Feb  7 15:44:42 2019 us=841389   suppress_timestamps = DISABLED
646Thu Feb  7 15:44:42 2019 us=841409   machine_readable_output = DISABLED
647Thu Feb  7 15:44:42 2019 us=841419   nice = 0
648Thu Feb  7 15:44:42 2019 us=841427   verbosity = 4
649Thu Feb  7 15:44:42 2019 us=841437   mute = 0
650Thu Feb  7 15:44:42 2019 us=841446   gremlin = 0
651Thu Feb  7 15:44:42 2019 us=841454   status_file = 'tuns_63110u/temp/stat.log'
652Thu Feb  7 15:44:42 2019 us=841462   status_file_version = 1
653Thu Feb  7 15:44:42 2019 us=841471   status_file_update_freq = 30
654Thu Feb  7 15:44:42 2019 us=841480   occ = ENABLED
655Thu Feb  7 15:44:42 2019 us=841488   rcvbuf = 0
656Thu Feb  7 15:44:42 2019 us=841497   sndbuf = 0
657Thu Feb  7 15:44:42 2019 us=841506   mark = 0
658Thu Feb  7 15:44:42 2019 us=841515   sockflags = 0
659Thu Feb  7 15:44:42 2019 us=841522   fast_io = DISABLED
660Thu Feb  7 15:44:42 2019 us=841530   comp.alg = 1
661Thu Feb  7 15:44:42 2019 us=841538   comp.flags = 0
662Thu Feb  7 15:44:42 2019 us=841546   route_script = '[UNDEF]'
663Thu Feb  7 15:44:42 2019 us=841554   route_default_gateway = '[UNDEF]'
664Thu Feb  7 15:44:42 2019 us=841562   route_default_metric = 0
665Thu Feb  7 15:44:42 2019 us=841582   route_noexec = DISABLED
666Thu Feb  7 15:44:42 2019 us=841593   route_delay = 0
667Thu Feb  7 15:44:42 2019 us=841601   route_delay_window = 30
668Thu Feb  7 15:44:42 2019 us=841610   route_delay_defined = DISABLED
669Thu Feb  7 15:44:42 2019 us=841623   route_nopull = DISABLED
670Thu Feb  7 15:44:42 2019 us=841632   route_gateway_via_dhcp = DISABLED
671Thu Feb  7 15:44:42 2019 us=841641   allow_pull_fqdn = DISABLED
672Thu Feb  7 15:44:42 2019 us=841654   route 10.63.110.0/255.255.255.0/default (not set)/default (not set)
673Thu Feb  7 15:44:42 2019 us=841664   management_addr = 'tunnel'
674Thu Feb  7 15:44:42 2019 us=841671   management_port = '63110'
675Thu Feb  7 15:44:42 2019 us=841682   management_user_pass = '[UNDEF]'
676Thu Feb  7 15:44:42 2019 us=841691   management_log_history_cache = 250
677Thu Feb  7 15:44:42 2019 us=841699   management_echo_buffer_size = 100
678Thu Feb  7 15:44:42 2019 us=841707   management_write_peer_info_file = '[UNDEF]'
679Thu Feb  7 15:44:42 2019 us=841715   management_client_user = '[UNDEF]'
680Thu Feb  7 15:44:42 2019 us=841725   management_client_group = '[UNDEF]'
681Thu Feb  7 15:44:42 2019 us=841733   management_flags = 0
682Thu Feb  7 15:44:42 2019 us=841741   shared_secret_file = '[UNDEF]'
683Thu Feb  7 15:44:42 2019 us=841749   key_direction = 0
684Thu Feb  7 15:44:42 2019 us=841760   ciphername = 'AES-256-CBC'
685Thu Feb  7 15:44:42 2019 us=841768   ncp_enabled = ENABLED
686Thu Feb  7 15:44:42 2019 us=841776   ncp_ciphers = 'AES-256-GCM:AES-128-GCM'
687Thu Feb  7 15:44:42 2019 us=841786   authname = 'RSA-SHA512'
688Thu Feb  7 15:44:42 2019 us=841795   prng_hash = 'SHA1'
689Thu Feb  7 15:44:42 2019 us=841804   prng_nonce_secret_len = 16
690Thu Feb  7 15:44:42 2019 us=841812   keysize = 0
691Thu Feb  7 15:44:42 2019 us=841819   engine = DISABLED
692Thu Feb  7 15:44:42 2019 us=841827   replay = ENABLED
693Thu Feb  7 15:44:42 2019 us=841835   mute_replay_warnings = DISABLED
694Thu Feb  7 15:44:42 2019 us=841844   replay_window = 64
695Thu Feb  7 15:44:42 2019 us=841853   replay_time = 15
696Thu Feb  7 15:44:42 2019 us=841862   packet_id_file = '[UNDEF]'
697Thu Feb  7 15:44:42 2019 us=841871   test_crypto = DISABLED
698Thu Feb  7 15:44:42 2019 us=841880   tls_server = ENABLED
699Thu Feb  7 15:44:42 2019 us=841889   tls_client = DISABLED
700Thu Feb  7 15:44:42 2019 us=841897   key_method = 2
701Thu Feb  7 15:44:42 2019 us=841906   ca_file = 'tuns_63110u/PKI/ca.crt'
702Thu Feb  7 15:44:42 2019 us=841917   ca_path = '[UNDEF]'
703Thu Feb  7 15:44:42 2019 us=841927   dh_file = 'tuns_63110u/PKI/dh-20160615-161526-163823.pem'
704Thu Feb  7 15:44:42 2019 us=841937   cert_file = 'tuns_63110u/PKI/v3.ec.hell.srv.lucifer.crt'
705Thu Feb  7 15:44:42 2019 us=841947   extra_certs_file = '[UNDEF]'
706Thu Feb  7 15:44:42 2019 us=841957   priv_key_file = 'tuns_63110u/PKI/v3.ec.hell.srv.lucifer.key'
707Thu Feb  7 15:44:42 2019 us=841966   pkcs12_file = '[UNDEF]'
708Thu Feb  7 15:44:42 2019 us=841980   cipher_list = '[UNDEF]'
709Thu Feb  7 15:44:42 2019 us=841991   cipher_list_tls13 = '[UNDEF]'
710Thu Feb  7 15:44:42 2019 us=842013   tls_cert_profile = '[UNDEF]'
711Thu Feb  7 15:44:42 2019 us=842022   tls_verify = '[UNDEF]'
712Thu Feb  7 15:44:42 2019 us=842032   tls_export_cert = '[UNDEF]'
713Thu Feb  7 15:44:42 2019 us=842042   verify_x509_type = 3
714Thu Feb  7 15:44:42 2019 us=842052   verify_x509_name = 'v3.ec.hell.cli.'
715Thu Feb  7 15:44:42 2019 us=842061   crl_file = '[UNDEF]'
716Thu Feb  7 15:44:42 2019 us=842070   ns_cert_type = 0
717Thu Feb  7 15:44:42 2019 us=842080   remote_cert_ku[i] = 0
718Thu Feb  7 15:44:42 2019 us=842090   remote_cert_ku[i] = 0
719Thu Feb  7 15:44:42 2019 us=842099   remote_cert_ku[i] = 0
720Thu Feb  7 15:44:42 2019 us=842108   remote_cert_ku[i] = 0
721Thu Feb  7 15:44:42 2019 us=842116   remote_cert_ku[i] = 0
722Thu Feb  7 15:44:42 2019 us=842129   remote_cert_ku[i] = 0
723Thu Feb  7 15:44:42 2019 us=842138   remote_cert_ku[i] = 0
724Thu Feb  7 15:44:42 2019 us=842146   remote_cert_ku[i] = 0
725Thu Feb  7 15:44:42 2019 us=842155   remote_cert_ku[i] = 0
726Thu Feb  7 15:44:42 2019 us=842163   remote_cert_ku[i] = 0
727Thu Feb  7 15:44:42 2019 us=842171   remote_cert_ku[i] = 0
728Thu Feb  7 15:44:42 2019 us=842179   remote_cert_ku[i] = 0
729Thu Feb  7 15:44:42 2019 us=842188   remote_cert_ku[i] = 0
730Thu Feb  7 15:44:42 2019 us=842197   remote_cert_ku[i] = 0
731Thu Feb  7 15:44:42 2019 us=842206   remote_cert_ku[i] = 0
732Thu Feb  7 15:44:42 2019 us=842214   remote_cert_ku[i] = 0
733Thu Feb  7 15:44:42 2019 us=842223   remote_cert_eku = '[UNDEF]'
734Thu Feb  7 15:44:42 2019 us=842257   ssl_flags = 0
735Thu Feb  7 15:44:42 2019 us=842268   tls_timeout = 2
736Thu Feb  7 15:44:42 2019 us=842278   renegotiate_bytes = -1
737Thu Feb  7 15:44:42 2019 us=842287   renegotiate_packets = 0
738Thu Feb  7 15:44:42 2019 us=842295   renegotiate_seconds = 3600
739Thu Feb  7 15:44:42 2019 us=842303   handshake_window = 60
740Thu Feb  7 15:44:42 2019 us=842311   transition_window = 3600
741Thu Feb  7 15:44:42 2019 us=842319   single_session = DISABLED
742Thu Feb  7 15:44:42 2019 us=842327   push_peer_info = DISABLED
743Thu Feb  7 15:44:42 2019 us=842336   tls_exit = DISABLED
744Thu Feb  7 15:44:42 2019 us=842344   tls_crypt_v2_genkey_type = '[UNDEF]'
745Thu Feb  7 15:44:42 2019 us=842352   tls_crypt_v2_genkey_file = '[UNDEF]'
746Thu Feb  7 15:44:42 2019 us=842359   tls_crypt_v2_metadata = '[UNDEF]'
747Thu Feb  7 15:44:42 2019 us=842369   server_network = 10.63.110.0
748Thu Feb  7 15:44:42 2019 us=842378   server_netmask = 255.255.255.0
749Thu Feb  7 15:44:42 2019 us=842388   server_network_ipv6 = ::
750Thu Feb  7 15:44:42 2019 us=842396   server_netbits_ipv6 = 0
751Thu Feb  7 15:44:42 2019 us=842405   server_bridge_ip = 0.0.0.0
752Thu Feb  7 15:44:42 2019 us=842414   server_bridge_netmask = 0.0.0.0
753Thu Feb  7 15:44:42 2019 us=842423   server_bridge_pool_start = 0.0.0.0
754Thu Feb  7 15:44:42 2019 us=842444   server_bridge_pool_end = 0.0.0.0
755Thu Feb  7 15:44:42 2019 us=842452   push_entry = 'explicit-exit-notify 3'
756Thu Feb  7 15:44:42 2019 us=842461   push_entry = 'comp-lzo no'
757Thu Feb  7 15:44:42 2019 us=842470   push_entry = 'route 10.63.110.0 255.255.255.0'
758Thu Feb  7 15:44:42 2019 us=842478   push_entry = 'topology net30'
759Thu Feb  7 15:44:42 2019 us=842486   push_entry = 'ping 10'
760Thu Feb  7 15:44:42 2019 us=842502   push_entry = 'ping-restart 60'
761Thu Feb  7 15:44:42 2019 us=842518   ifconfig_pool_defined = ENABLED
762Thu Feb  7 15:44:42 2019 us=842534   ifconfig_pool_start = 10.63.110.4
763Thu Feb  7 15:44:42 2019 us=842549   ifconfig_pool_end = 10.63.110.251
764Thu Feb  7 15:44:42 2019 us=842564   ifconfig_pool_netmask = 0.0.0.0
765Thu Feb  7 15:44:42 2019 us=842577   ifconfig_pool_persist_filename = '[UNDEF]'
766Thu Feb  7 15:44:42 2019 us=842590   ifconfig_pool_persist_refresh_freq = 600
767Thu Feb  7 15:44:42 2019 us=842603   ifconfig_ipv6_pool_defined = DISABLED
768Thu Feb  7 15:44:42 2019 us=842613   ifconfig_ipv6_pool_base = ::
769Thu Feb  7 15:44:42 2019 us=842621   ifconfig_ipv6_pool_netbits = 0
770Thu Feb  7 15:44:42 2019 us=842629   n_bcast_buf = 256
771Thu Feb  7 15:44:42 2019 us=842638   tcp_queue_limit = 64
772Thu Feb  7 15:44:42 2019 us=842647   real_hash_size = 256
773Thu Feb  7 15:44:42 2019 us=842655   virtual_hash_size = 256
774Thu Feb  7 15:44:42 2019 us=842664   client_connect_script = '[UNDEF]'
775Thu Feb  7 15:44:42 2019 us=842686   learn_address_script = '[UNDEF]'
776Thu Feb  7 15:44:42 2019 us=842695   client_disconnect_script = '[UNDEF]'
777Thu Feb  7 15:44:42 2019 us=842703   client_config_dir = 'tuns_63110u/CCD_net30'
778Thu Feb  7 15:44:42 2019 us=842711   ccd_exclusive = ENABLED
779Thu Feb  7 15:44:42 2019 us=842720   tmp_dir = 'tuns_63110u/temp'
780Thu Feb  7 15:44:42 2019 us=842728   push_ifconfig_defined = DISABLED
781Thu Feb  7 15:44:42 2019 us=842737   push_ifconfig_local = 0.0.0.0
782Thu Feb  7 15:44:42 2019 us=842746   push_ifconfig_remote_netmask = 0.0.0.0
783Thu Feb  7 15:44:42 2019 us=842755   push_ifconfig_ipv6_defined = DISABLED
784Thu Feb  7 15:44:42 2019 us=842765   push_ifconfig_ipv6_local = ::/0
785Thu Feb  7 15:44:42 2019 us=842774   push_ifconfig_ipv6_remote = ::
786Thu Feb  7 15:44:42 2019 us=842783   enable_c2c = ENABLED
787Thu Feb  7 15:44:42 2019 us=842792   duplicate_cn = DISABLED
788Thu Feb  7 15:44:42 2019 us=842801   cf_max = 0
789Thu Feb  7 15:44:42 2019 us=842809   cf_per = 0
790Thu Feb  7 15:44:42 2019 us=842818   max_clients = 1024
791Thu Feb  7 15:44:42 2019 us=842826   max_routes_per_client = 256
792Thu Feb  7 15:44:42 2019 us=842834   auth_user_pass_verify_script = '[UNDEF]'
793Thu Feb  7 15:44:42 2019 us=842842   auth_user_pass_verify_script_via_file = DISABLED
794Thu Feb  7 15:44:42 2019 us=842850   auth_token_generate = DISABLED
795Thu Feb  7 15:44:42 2019 us=842858   auth_token_lifetime = 0
796Thu Feb  7 15:44:42 2019 us=842867   port_share_host = '[UNDEF]'
797Thu Feb  7 15:44:42 2019 us=842875   port_share_port = '[UNDEF]'
798Thu Feb  7 15:44:42 2019 us=842884   client = DISABLED
799Thu Feb  7 15:44:42 2019 us=842892   pull = DISABLED
800Thu Feb  7 15:44:42 2019 us=842899   auth_user_pass_file = '[UNDEF]'
801Thu Feb  7 15:44:42 2019 us=842911 OpenVPN 2.5_git [git:master/ce1c1beef1eb9ea7+] x86_64-pc-linux-gnu [SSL (OpenSSL)] [LZO] [LZ4] [EPOLL] [MH/PKTINFO] [AEAD] built on Feb  6 2019
802Thu Feb  7 15:44:42 2019 us=842922 library versions: OpenSSL 1.1.0g  2 Nov 2017, LZO 2.08
803Thu Feb  7 15:44:42 2019 us=842975 Restart pause, 5 second(s)
804Thu Feb  7 15:44:47 2019 us=844277 Diffie-Hellman initialized with 4096 bit key
805Thu Feb  7 15:44:47 2019 us=846838 Outgoing Control Channel Authentication: Using 512 bit message hash 'SHA512' for HMAC authentication
806Thu Feb  7 15:44:47 2019 us=847091 Incoming Control Channel Authentication: Using 512 bit message hash 'SHA512' for HMAC authentication
807Thu Feb  7 15:44:47 2019 us=847281 TLS-Auth MTU parms [ L:1622 D:1140 EF:110 EB:0 ET:0 EL:3 ]
808Thu Feb  7 15:44:47 2019 us=847633 ROUTE_GATEWAY 10.2.201.1/255.255.255.0 IFACE=wlp9s0 HWADDR=c0:18:85:79:69:a7
809Thu Feb  7 15:44:47 2019 us=847961 TUN/TAP device tunsu63110 opened
810Thu Feb  7 15:44:47 2019 us=848051 TUN/TAP TX queue length set to 100
811Thu Feb  7 15:44:47 2019 us=848077 do_ifconfig, ipv4=1, ipv6=0
812Thu Feb  7 15:44:47 2019 us=848099 /sbin/ifconfig tunsu63110 10.63.110.1 pointopoint 10.63.110.2 mtu 1500
813Thu Feb  7 15:44:47 2019 us=853284 /sbin/route add -net 10.63.110.0 netmask 255.255.255.0 gw 10.63.110.2
814Thu Feb  7 15:44:47 2019 us=864253 Data Channel MTU parms [ L:1622 D:1450 EF:122 EB:406 ET:0 EL:3 ]
815Thu Feb  7 15:44:47 2019 us=864295 Could not determine IPv4/IPv6 protocol. Using AF_INET
816Thu Feb  7 15:44:47 2019 us=864331 Socket Buffers: R=[212992->212992] S=[212992->212992]
817Thu Feb  7 15:44:47 2019 us=864360 UDPv4 link local (bound): [AF_INET]10.2.201.101:63110
818Thu Feb  7 15:44:47 2019 us=864377 UDPv4 link remote: [AF_UNSPEC]
819Thu Feb  7 15:44:47 2019 us=864399 MULTI: multi_init called, r=256 v=256
820Thu Feb  7 15:44:47 2019 us=864435 IFCONFIG POOL: base=10.63.110.4 size=62, ipv6=0
821Thu Feb  7 15:44:47 2019 us=864476 Initialization Sequence Completed
822Thu Feb  7 15:44:47 2019 us=864521 MANAGEMENT: TCP Socket listening on [AF_INET]10.63.110.1:0
823Thu Feb  7 15:45:01 2019 us=740956 event_wait : Interrupted system call (code=4)
824Thu Feb  7 15:45:01 2019 us=741143 TCP/UDP: Closing socket
825Thu Feb  7 15:45:01 2019 us=741221 /sbin/route del -net 10.63.110.0 netmask 255.255.255.0
826Thu Feb  7 15:45:01 2019 us=742126 Closing TUN/TAP interface
827Thu Feb  7 15:45:01 2019 us=742200 /sbin/ifconfig tunsu63110 0.0.0.0
828Thu Feb  7 15:45:01 2019 us=767574 SIGTERM[hard,] received, process exiting